createdAt,value
2023-01-15T00:00:33.866Z,57.38
2023-01-15T00:03:00.330Z,57.82
2023-01-15T00:05:27.537Z,55.96
2023-01-15T00:07:53.989Z,51.64
2023-01-15T00:10:20.315Z,52.20
2023-01-15T00:12:46.677Z,53.13
2023-01-15T00:15:14.575Z,53.47
2023-01-15T00:17:41.065Z,55.10
2023-01-15T00:20:07.408Z,54.63
2023-01-15T00:22:33.944Z,56.34
2023-01-15T00:25:00.329Z,57.07
2023-01-15T00:27:26.712Z,57.07
2023-01-15T00:29:53.154Z,56.81
2023-01-15T00:32:19.482Z,57.25
2023-01-15T00:34:45.857Z,58.54
2023-01-15T00:37:12.208Z,58.66
2023-01-15T00:39:38.557Z,58.92
2023-01-15T00:42:05.122Z,58.51
2023-01-15T00:44:31.472Z,56.96
2023-01-15T00:46:57.808Z,57.08
2023-01-15T00:49:24.167Z,59.13
2023-01-15T00:51:50.493Z,57.91
2023-01-15T00:54:16.845Z,59.60
2023-01-15T00:56:43.250Z,60.53
2023-01-15T00:59:09.819Z,61.90
2023-01-15T01:01:36.394Z,62.15
2023-01-15T01:04:04.933Z,63.22
2023-01-15T01:06:31.327Z,62.81
2023-01-15T01:08:57.745Z,62.46
2023-01-15T01:11:24.142Z,63.65
2023-01-15T01:13:50.846Z,63.70
2023-01-15T01:16:17.312Z,64.19
2023-01-15T01:18:43.746Z,64.51
2023-01-15T01:21:10.132Z,65.04
2023-01-15T01:23:36.487Z,65.89
2023-01-15T01:26:02.879Z,65.56
2023-01-15T01:28:29.213Z,64.68
2023-01-15T01:30:55.554Z,64.58
2023-01-15T01:33:21.919Z,64.65
2023-01-15T01:35:48.244Z,65.09
2023-01-15T01:38:14.604Z,65.66
2023-01-15T01:40:40.998Z,66.08
2023-01-15T01:43:07.319Z,65.18
2023-01-15T01:45:33.717Z,64.50
2023-01-15T01:48:00.127Z,64.49
2023-01-15T01:50:26.657Z,64.33
2023-01-15T01:52:52.989Z,64.27
2023-01-15T01:55:19.320Z,63.58
2023-01-15T01:57:45.677Z,63.84
2023-01-15T02:00:12.046Z,63.11
2023-01-15T02:02:38.415Z,62.15
2023-01-15T02:05:04.764Z,63.06
2023-01-15T02:07:31.074Z,62.19
2023-01-15T02:09:57.475Z,63.49
2023-01-15T02:12:23.825Z,64.40
2023-01-15T02:14:50.162Z,64.24
2023-01-15T02:17:16.535Z,64.52
2023-01-15T02:19:43.013Z,64.38
2023-01-15T02:22:09.353Z,65.11
2023-01-15T02:24:35.690Z,65.25
2023-01-15T02:27:02.020Z,66.04
2023-01-15T02:29:28.595Z,65.17
2023-01-15T02:31:54.965Z,65.21
2023-01-15T02:34:22.450Z,65.64
2023-01-15T02:36:48.823Z,66.03
2023-01-15T02:39:15.201Z,66.37
2023-01-15T02:41:41.531Z,66.97
2023-01-15T02:44:07.874Z,67.31
2023-01-15T02:46:34.200Z,67.53
2023-01-15T02:49:00.527Z,67.65
2023-01-15T02:51:26.869Z,67.49
2023-01-15T02:53:53.191Z,67.25
2023-01-15T02:56:19.566Z,67.25
2023-01-15T02:58:45.919Z,67.11
2023-01-15T03:01:12.370Z,67.55
2023-01-15T03:03:38.752Z,67.92
2023-01-15T03:06:05.123Z,67.76
2023-01-15T03:08:31.524Z,67.68
2023-01-15T03:10:58.018Z,66.88
2023-01-15T03:13:24.351Z,67.58
2023-01-15T03:15:50.720Z,66.93
2023-01-15T03:18:17.083Z,67.27
2023-01-15T03:20:43.429Z,67.23
2023-01-15T03:23:09.870Z,67.22
2023-01-15T03:25:36.255Z,67.65
2023-01-15T03:28:02.584Z,67.81
2023-01-15T03:30:28.980Z,66.89
2023-01-15T03:32:55.410Z,67.39
2023-01-15T03:35:21.818Z,67.68
2023-01-15T03:37:48.255Z,67.52
2023-01-15T03:40:14.595Z,67.88
2023-01-15T03:42:40.950Z,68.12
2023-01-15T03:45:07.329Z,68.59
2023-01-15T03:47:33.693Z,68.70
2023-01-15T03:50:00.050Z,69.14
2023-01-15T03:52:26.407Z,68.87
2023-01-15T03:54:52.782Z,68.45
2023-01-15T03:57:20.353Z,68.49
2023-01-15T03:59:46.783Z,67.89
2023-01-15T04:02:13.252Z,68.88
2023-01-15T04:04:42.198Z,68.75
2023-01-15T04:07:08.568Z,69.40
2023-01-15T04:09:34.902Z,69.54
2023-01-15T04:12:01.265Z,69.74
2023-01-15T04:14:27.601Z,69.68
2023-01-15T04:16:53.947Z,69.68
2023-01-15T04:19:20.302Z,69.16
2023-01-15T04:21:46.672Z,69.04
2023-01-15T04:24:13.054Z,69.64
2023-01-15T04:26:39.386Z,69.46
2023-01-15T04:29:05.730Z,70.23
2023-01-15T04:31:32.111Z,70.34
2023-01-15T04:33:58.481Z,71.23
2023-01-15T04:36:24.816Z,71.06
2023-01-15T04:38:51.164Z,69.94
2023-01-15T04:41:17.532Z,70.87
2023-01-15T04:43:43.888Z,71.40
2023-01-15T04:46:10.275Z,72.10
2023-01-15T04:48:36.672Z,72.28
2023-01-15T04:51:03.012Z,71.80
2023-01-15T04:53:29.361Z,70.65
2023-01-15T04:55:55.716Z,72.60
2023-01-15T04:58:22.049Z,71.62
2023-01-15T05:00:48.372Z,71.24
2023-01-15T05:03:14.734Z,70.24
2023-01-15T05:05:42.850Z,69.95
2023-01-15T05:08:09.384Z,70.31
2023-01-15T05:10:35.702Z,68.40
2023-01-15T05:13:02.027Z,68.89
2023-01-15T05:15:28.413Z,68.83
2023-01-15T05:17:54.760Z,68.32
2023-01-15T05:20:21.100Z,68.29
2023-01-15T05:22:49.721Z,67.39
2023-01-15T05:25:16.053Z,67.94
2023-01-15T05:27:42.415Z,67.73
2023-01-15T05:30:08.906Z,67.14
2023-01-15T05:32:35.265Z,67.54
2023-01-15T05:35:01.638Z,67.47
2023-01-15T05:37:28.017Z,67.08
2023-01-15T05:39:54.397Z,67.09
2023-01-15T05:42:20.725Z,67.21
2023-01-15T05:44:47.115Z,67.21
2023-01-15T05:47:13.446Z,66.80
2023-01-15T05:49:39.792Z,67.05
2023-01-15T05:52:06.142Z,67.42
2023-01-15T05:54:32.526Z,67.68
2023-01-15T05:56:58.952Z,67.56
2023-01-15T05:59:25.308Z,67.62
2023-01-15T06:01:51.712Z,67.95
2023-01-15T06:04:20.132Z,67.20
2023-01-15T06:06:46.507Z,66.99
2023-01-15T06:09:12.861Z,66.93
2023-01-15T06:11:39.297Z,66.75
2023-01-15T06:14:05.622Z,66.39
2023-01-15T06:16:31.974Z,66.30
2023-01-15T06:18:58.396Z,66.16
2023-01-15T06:21:24.782Z,66.59
2023-01-15T06:23:51.129Z,66.98
2023-01-15T06:26:17.507Z,67.60
2023-01-15T06:28:43.884Z,67.36
2023-01-15T06:31:11.568Z,67.21
2023-01-15T06:33:46.151Z,66.56
2023-01-15T06:36:12.502Z,67.27
2023-01-15T06:38:38.899Z,67.36
2023-01-15T06:41:05.278Z,66.85
2023-01-15T06:43:31.626Z,67.32
2023-01-15T06:45:58.167Z,66.84
2023-01-15T06:48:24.671Z,67.22
2023-01-15T06:50:52.760Z,67.81
2023-01-15T06:53:19.132Z,67.90
2023-01-15T06:55:45.472Z,67.58
2023-01-15T06:58:11.823Z,67.13
2023-01-15T07:00:38.300Z,66.36
2023-01-15T07:03:04.732Z,66.00
2023-01-15T07:05:31.144Z,65.78
2023-01-15T07:07:57.575Z,66.14
2023-01-15T07:10:23.942Z,64.59
2023-01-15T07:12:50.283Z,65.60
2023-01-15T07:15:16.755Z,66.97
2023-01-15T07:17:43.111Z,67.39
2023-01-15T07:20:09.480Z,66.66
2023-01-15T07:22:35.864Z,66.21
2023-01-15T07:25:04.630Z,65.22
2023-01-15T07:27:31.003Z,63.01
2023-01-15T07:30:00.311Z,63.28
2023-01-15T07:32:26.643Z,62.79
2023-01-15T07:34:53.053Z,62.91
2023-01-15T07:37:19.384Z,62.95
2023-01-15T07:39:46.728Z,63.88
2023-01-15T07:42:13.145Z,64.14
2023-01-15T07:44:39.550Z,63.45
2023-01-15T07:47:05.946Z,62.74
2023-01-15T07:49:32.312Z,63.72
2023-01-15T07:51:58.715Z,64.15
2023-01-15T07:54:25.091Z,65.36
2023-01-15T07:56:51.470Z,64.13
2023-01-15T07:59:17.864Z,64.56
2023-01-15T08:01:47.215Z,61.78
2023-01-15T08:04:17.796Z,63.23
2023-01-15T08:06:53.030Z,64.44
2023-01-15T08:09:19.454Z,63.86
2023-01-15T08:11:46.009Z,64.83
2023-01-15T08:14:12.366Z,63.81
2023-01-15T08:16:38.739Z,62.80
2023-01-15T08:19:05.148Z,60.69
2023-01-15T08:21:31.489Z,60.06
2023-01-15T08:23:57.802Z,61.93
2023-01-15T08:26:24.158Z,61.94
2023-01-15T08:28:50.569Z,63.09
2023-01-15T08:31:16.922Z,63.10
2023-01-15T08:33:43.302Z,64.11
2023-01-15T08:36:09.622Z,64.54
2023-01-15T08:38:35.961Z,63.87
2023-01-15T08:41:02.315Z,64.02
2023-01-15T08:43:28.647Z,64.26
2023-01-15T08:45:55.029Z,64.55
2023-01-15T08:48:21.426Z,64.81
2023-01-15T08:50:47.765Z,64.73
2023-01-15T08:53:14.174Z,64.07
2023-01-15T08:55:40.564Z,67.52
2023-01-15T08:58:06.907Z,68.84
2023-01-15T09:00:33.313Z,69.12
2023-01-15T09:02:59.681Z,68.44
2023-01-15T09:05:26.069Z,69.45
2023-01-15T09:07:52.536Z,68.37
2023-01-15T09:10:18.990Z,70.82
2023-01-15T09:12:45.381Z,73.48
2023-01-15T09:15:11.722Z,75.64
2023-01-15T09:17:38.110Z,77.42
2023-01-15T09:20:04.518Z,78.94
2023-01-15T09:22:31.079Z,79.57
2023-01-15T09:24:57.620Z,79.09
2023-01-15T09:27:24.175Z,78.62
2023-01-15T09:29:53.564Z,79.80
2023-01-15T09:32:19.962Z,81.25
2023-01-15T09:34:46.303Z,80.20
2023-01-15T09:37:12.654Z,81.50
2023-01-15T09:39:39.081Z,82.05
2023-01-15T09:42:05.595Z,81.76
2023-01-15T09:44:31.949Z,82.06
2023-01-15T09:46:58.365Z,82.64
2023-01-15T09:49:24.859Z,80.98
2023-01-15T09:51:51.203Z,82.56
2023-01-15T09:54:18.285Z,80.95
2023-01-15T09:56:44.858Z,80.56
2023-01-15T09:59:11.231Z,82.09
2023-01-15T10:01:37.551Z,81.79
2023-01-15T10:04:04.004Z,80.60
2023-01-15T10:06:30.495Z,79.92
2023-01-15T10:08:56.879Z,80.38
2023-01-15T10:11:23.393Z,78.94
2023-01-15T10:13:52.472Z,78.79
2023-01-15T10:16:19.005Z,78.49
2023-01-15T10:18:45.458Z,78.71
2023-01-15T10:21:11.860Z,77.22
2023-01-15T10:23:39.450Z,78.20
2023-01-15T10:26:05.962Z,78.04
2023-01-15T10:28:32.369Z,79.17
2023-01-15T10:30:59.003Z,79.57
2023-01-15T10:33:25.351Z,77.98
2023-01-15T10:35:51.788Z,78.77
2023-01-15T10:38:18.219Z,79.18
2023-01-15T10:40:44.589Z,76.76
2023-01-15T10:43:11.151Z,79.07
2023-01-15T10:45:37.591Z,78.47
2023-01-15T10:48:04.004Z,76.09
2023-01-15T10:50:30.757Z,78.47
2023-01-15T10:52:57.146Z,79.88
2023-01-15T10:55:26.536Z,78.86
2023-01-15T10:58:09.134Z,80.26
2023-01-15T11:00:36.098Z,79.38
2023-01-15T11:03:02.637Z,78.71
2023-01-15T11:05:29.037Z,74.32
2023-01-15T11:08:48.220Z,73.77
2023-01-15T11:10:41.819Z,75.72
2023-01-15T11:13:08.217Z,76.79
2023-01-15T11:15:34.585Z,74.10
2023-01-15T11:18:01.028Z,76.35
2023-01-15T11:20:27.475Z,76.35
2023-01-15T11:22:53.991Z,74.77
2023-01-15T11:25:20.430Z,73.55
2023-01-15T11:27:46.825Z,70.12
2023-01-15T11:30:13.296Z,76.10
2023-01-15T11:32:39.768Z,73.50
2023-01-15T11:35:06.124Z,73.45
2023-01-15T11:37:32.628Z,73.96
2023-01-15T11:39:59.197Z,76.44
2023-01-15T11:42:25.599Z,78.00
2023-01-15T11:44:52.003Z,75.37
2023-01-15T11:47:18.511Z,75.94
2023-01-15T11:49:45.038Z,76.86
2023-01-15T11:52:16.042Z,77.34
2023-01-15T11:54:42.456Z,79.64
2023-01-15T11:57:08.918Z,79.13
2023-01-15T11:59:36.539Z,78.07
2023-01-15T12:02:06.316Z,78.23
2023-01-15T12:04:32.737Z,77.80
2023-01-15T12:06:59.181Z,79.32
2023-01-15T12:09:25.583Z,79.23
2023-01-15T12:11:51.956Z,79.58
2023-01-15T12:14:20.490Z,77.14
2023-01-15T12:16:46.894Z,79.39
2023-01-15T12:19:13.313Z,76.56
2023-01-15T12:21:39.738Z,78.58
2023-01-15T12:24:06.175Z,77.38
2023-01-15T12:26:32.549Z,78.60
2023-01-15T12:28:59.071Z,77.75
2023-01-15T12:31:25.486Z,78.15
2023-01-15T12:33:51.984Z,77.54
2023-01-15T12:36:18.450Z,76.21
2023-01-15T12:38:44.883Z,78.06
2023-01-15T12:41:11.223Z,76.06
2023-01-15T12:43:37.637Z,77.19
2023-01-15T12:46:03.979Z,76.99
2023-01-15T12:48:35.145Z,77.60
2023-01-15T12:51:01.574Z,74.26
2023-01-15T12:53:27.956Z,75.26
2023-01-15T12:55:54.347Z,76.25
2023-01-15T12:58:20.788Z,72.86
2023-01-15T13:00:47.450Z,73.66
2023-01-15T13:03:13.863Z,74.11
2023-01-15T13:05:40.221Z,74.55
2023-01-15T13:08:06.690Z,74.54
2023-01-15T13:10:33.093Z,75.93
2023-01-15T13:12:59.523Z,73.43
2023-01-15T13:15:26.948Z,77.20
2023-01-15T13:17:53.339Z,74.89
2023-01-15T13:20:19.742Z,75.49
2023-01-15T13:22:46.085Z,75.43
2023-01-15T13:25:14.797Z,73.16
2023-01-15T13:27:41.150Z,72.81
2023-01-15T13:30:07.744Z,74.00
2023-01-15T13:32:34.174Z,76.45
2023-01-15T13:35:00.588Z,76.07
2023-01-15T13:37:26.987Z,74.70
2023-01-15T13:39:54.535Z,75.71
2023-01-15T13:42:21.015Z,73.82
2023-01-15T13:44:47.475Z,75.44
2023-01-15T13:47:13.832Z,76.51
2023-01-15T13:49:40.361Z,76.89
2023-01-15T13:52:08.873Z,74.94
2023-01-15T13:54:35.291Z,76.35
2023-01-15T13:57:01.768Z,77.65
2023-01-15T13:59:28.168Z,76.37
2023-01-15T14:01:54.677Z,75.64
2023-01-15T14:04:21.145Z,76.00
2023-01-15T14:06:47.560Z,74.15
2023-01-15T14:09:14.011Z,75.27
2023-01-15T14:11:40.442Z,74.66
2023-01-15T14:14:06.784Z,74.77
2023-01-15T14:16:33.230Z,75.83
2023-01-15T14:18:59.685Z,74.63
2023-01-15T14:21:26.167Z,76.71
2023-01-15T14:23:52.632Z,76.48
2023-01-15T14:26:19.041Z,73.97
2023-01-15T14:28:45.605Z,72.90
2023-01-15T14:31:13.073Z,75.04
2023-01-15T14:33:39.489Z,77.21
2023-01-15T14:36:06.006Z,77.46
2023-01-15T14:38:35.850Z,76.86
2023-01-15T14:41:02.379Z,75.08
2023-01-15T14:43:28.775Z,73.50
2023-01-15T14:45:55.282Z,74.07
2023-01-15T14:48:21.708Z,75.04
2023-01-15T14:50:48.313Z,75.38
2023-01-15T14:53:14.870Z,76.37
2023-01-15T14:55:41.305Z,77.31
2023-01-15T14:58:08.024Z,77.49
2023-01-15T15:00:34.452Z,77.69
2023-01-15T15:03:01.027Z,77.59
2023-01-15T15:05:27.571Z,76.81
2023-01-15T15:07:55.291Z,76.78
2023-01-15T15:10:21.730Z,75.72
2023-01-15T15:12:48.164Z,75.71
2023-01-15T15:15:14.575Z,72.63
2023-01-15T15:17:41.020Z,75.62
2023-01-15T15:20:07.409Z,76.19
2023-01-15T15:22:33.894Z,74.33
2023-01-15T15:25:00.325Z,75.12
2023-01-15T15:27:26.783Z,74.98
2023-01-15T15:29:53.239Z,75.40
2023-01-15T15:32:19.734Z,74.70
2023-01-15T15:34:46.151Z,76.04
2023-01-15T15:37:12.607Z,75.84
2023-01-15T15:39:39.041Z,76.62
2023-01-15T15:42:05.480Z,75.79
2023-01-15T15:44:31.875Z,74.30
2023-01-15T15:46:58.310Z,74.88
2023-01-15T15:49:24.708Z,73.63
2023-01-15T15:51:51.099Z,73.10
2023-01-15T15:54:17.658Z,73.98
2023-01-15T15:56:44.044Z,73.42
2023-01-15T15:59:10.468Z,74.18
2023-01-15T16:01:37.173Z,75.81
2023-01-15T16:04:03.616Z,72.91
2023-01-15T16:06:30.117Z,74.20
2023-01-15T16:08:56.608Z,74.25
2023-01-15T16:11:23.179Z,72.77
2023-01-15T16:13:49.569Z,73.11
2023-01-15T16:16:16.048Z,72.73
2023-01-15T16:18:43.894Z,73.76
2023-01-15T16:21:10.299Z,72.28
2023-01-15T16:23:36.683Z,73.28
2023-01-15T16:26:03.090Z,74.26
2023-01-15T16:28:29.502Z,73.78
2023-01-15T16:30:55.968Z,74.52
2023-01-15T16:33:24.651Z,75.10
2023-01-15T16:35:51.037Z,73.86
2023-01-15T16:38:17.443Z,74.92
2023-01-15T16:40:43.852Z,74.88
2023-01-15T16:43:10.330Z,75.53
2023-01-15T16:45:36.876Z,75.19
2023-01-15T16:48:03.251Z,74.60
2023-01-15T16:50:29.646Z,75.00
2023-01-15T16:52:57.263Z,75.07
2023-01-15T16:55:25.016Z,72.54
2023-01-15T16:57:51.461Z,71.76
2023-01-15T17:00:17.852Z,72.78
2023-01-15T17:02:44.536Z,72.52
2023-01-15T17:05:19.934Z,73.16
2023-01-15T17:07:46.335Z,72.66
2023-01-15T17:10:13.996Z,71.81
2023-01-15T17:12:40.393Z,72.05
2023-01-15T17:15:06.812Z,72.82
2023-01-15T17:17:33.265Z,73.21
2023-01-15T17:19:59.664Z,72.50
2023-01-15T17:22:26.061Z,71.81
2023-01-15T17:24:52.477Z,71.76
2023-01-15T17:27:18.930Z,70.94
2023-01-15T17:29:45.343Z,71.16
2023-01-15T17:32:12.441Z,72.07
2023-01-15T17:34:38.862Z,72.05
2023-01-15T17:37:05.297Z,70.51
2023-01-15T17:39:31.714Z,71.60
2023-01-15T17:41:58.123Z,71.52
2023-01-15T17:44:24.543Z,73.23
2023-01-15T17:46:50.978Z,72.50
2023-01-15T17:49:17.355Z,73.33
2023-01-15T17:51:43.760Z,73.57
2023-01-15T17:54:12.360Z,73.84
2023-01-15T17:56:38.843Z,73.64
2023-01-15T17:59:05.229Z,72.89
2023-01-15T18:01:31.797Z,71.59
2023-01-15T18:03:58.267Z,72.07
2023-01-15T18:06:24.654Z,72.55
2023-01-15T18:08:55.171Z,72.85
2023-01-15T18:11:21.654Z,73.82
2023-01-15T18:13:48.084Z,73.05
2023-01-15T18:16:14.520Z,73.96
2023-01-15T18:18:40.980Z,73.80
2023-01-15T18:21:07.543Z,73.15
2023-01-15T18:23:34.054Z,71.35
2023-01-15T18:26:03.715Z,71.86
2023-01-15T18:28:30.192Z,72.09
2023-01-15T18:30:56.651Z,72.03
2023-01-15T18:33:25.914Z,72.73
2023-01-15T18:35:52.277Z,72.20
2023-01-15T18:38:18.710Z,71.02
2023-01-15T18:40:45.055Z,71.87
2023-01-15T18:43:11.480Z,72.41
2023-01-15T18:45:37.853Z,71.22
2023-01-15T18:48:04.229Z,72.86
2023-01-15T18:50:30.642Z,73.20
2023-01-15T18:52:56.971Z,73.20
2023-01-15T18:55:23.350Z,73.89
2023-01-15T18:57:49.772Z,74.55
2023-01-15T19:00:16.213Z,73.75
2023-01-15T19:02:43.890Z,73.84
2023-01-15T19:05:12.624Z,70.35
2023-01-15T19:07:39.082Z,71.69
2023-01-15T19:10:05.577Z,71.72
2023-01-15T19:12:32.021Z,71.98
2023-01-15T19:14:58.376Z,70.36
2023-01-15T19:17:24.744Z,72.07
2023-01-15T19:19:51.147Z,72.41
2023-01-15T19:22:20.448Z,71.20
2023-01-15T19:24:46.896Z,70.94
2023-01-15T19:27:13.295Z,71.26
2023-01-15T19:29:39.727Z,70.61
2023-01-15T19:32:06.164Z,70.39
2023-01-15T19:34:35.340Z,71.70
2023-01-15T19:37:01.717Z,71.00
2023-01-15T19:39:33.408Z,71.27
2023-01-15T19:41:59.812Z,72.13
2023-01-15T19:44:26.346Z,70.97
2023-01-15T19:46:52.754Z,69.67
2023-01-15T19:49:19.154Z,69.56
2023-01-15T19:51:45.616Z,69.58
2023-01-15T19:54:12.053Z,69.18
2023-01-15T19:56:39.842Z,69.63
2023-01-15T19:59:06.206Z,70.15
2023-01-15T20:01:32.662Z,70.24
2023-01-15T20:03:59.141Z,70.32
2023-01-15T20:06:25.572Z,70.79
2023-01-15T20:08:54.350Z,70.22
2023-01-15T20:11:20.760Z,70.53
2023-01-15T20:13:47.117Z,71.08
2023-01-15T20:16:13.601Z,69.83
2023-01-15T20:18:40.048Z,68.69
2023-01-15T20:21:06.448Z,68.94
2023-01-15T20:23:32.852Z,68.76
2023-01-15T20:26:05.949Z,69.10
2023-01-15T20:28:37.423Z,69.10
2023-01-15T20:31:03.820Z,68.44
2023-01-15T20:33:30.201Z,70.24
2023-01-15T20:35:56.619Z,70.60
2023-01-15T20:38:23.115Z,70.67
2023-01-15T20:40:49.556Z,69.64
2023-01-15T20:43:15.935Z,66.94
2023-01-15T20:45:46.152Z,66.25
2023-01-15T20:48:12.563Z,66.82
2023-01-15T20:50:38.984Z,68.17
2023-01-15T20:53:11.264Z,67.34
2023-01-15T20:55:53.801Z,67.03
2023-01-15T20:58:23.158Z,67.95
2023-01-15T21:00:52.972Z,68.37
2023-01-15T21:03:22.507Z,67.47
2023-01-15T21:05:48.893Z,66.78
2023-01-15T21:08:15.266Z,67.80
2023-01-15T21:10:41.647Z,68.00
2023-01-15T21:13:09.050Z,67.65
2023-01-15T21:15:38.285Z,67.28
2023-01-15T21:18:04.679Z,68.75
2023-01-15T21:20:31.085Z,68.43
2023-01-15T21:23:02.051Z,68.94
2023-01-15T21:25:28.406Z,69.19
2023-01-15T21:27:57.804Z,69.91
2023-01-15T21:30:26.088Z,70.28
2023-01-15T21:32:54.829Z,68.02
2023-01-15T21:35:21.193Z,67.82
2023-01-15T21:37:47.620Z,65.46
2023-01-15T21:40:15.584Z,66.28
2023-01-15T21:42:42.021Z,67.55
2023-01-15T21:45:08.381Z,68.18
2023-01-15T21:47:34.806Z,68.08
2023-01-15T21:50:02.238Z,67.87
2023-01-15T21:52:28.659Z,67.90
2023-01-15T21:54:55.248Z,67.81
2023-01-15T21:57:21.606Z,65.56
2023-01-15T21:59:48.003Z,67.13
2023-01-15T22:02:21.731Z,66.11
2023-01-15T22:04:48.434Z,64.18
2023-01-15T22:07:14.868Z,64.91
2023-01-15T22:09:41.255Z,65.10
2023-01-15T22:12:07.703Z,65.41
2023-01-15T22:14:34.174Z,67.59
2023-01-15T22:17:00.553Z,69.07
2023-01-15T22:19:27.139Z,68.42
2023-01-15T22:21:53.545Z,68.04
2023-01-15T22:24:20.805Z,68.16
2023-01-15T22:26:49.556Z,68.05
2023-01-15T22:29:15.879Z,67.47
2023-01-15T22:31:42.220Z,68.52
2023-01-15T22:34:08.545Z,67.42
2023-01-15T22:36:35.119Z,68.30
2023-01-15T22:39:04.573Z,67.52
2023-01-15T22:41:30.927Z,68.45
2023-01-15T22:43:57.366Z,67.17
2023-01-15T22:46:23.782Z,67.53
2023-01-15T22:48:50.277Z,67.23
2023-01-15T22:51:16.705Z,66.39
2023-01-15T22:53:43.040Z,67.61
2023-01-15T22:56:09.365Z,67.45
2023-01-15T22:58:35.704Z,68.67
2023-01-15T23:01:02.151Z,68.24
2023-01-15T23:03:28.523Z,67.19
2023-01-15T23:05:54.869Z,66.94
2023-01-15T23:08:22.288Z,67.86
2023-01-15T23:10:48.638Z,67.69
2023-01-15T23:13:15.190Z,67.11
2023-01-15T23:15:41.816Z,68.75
2023-01-15T23:18:08.183Z,69.29
2023-01-15T23:20:34.522Z,68.09
2023-01-15T23:23:01.214Z,68.33
2023-01-15T23:25:27.591Z,67.46
2023-01-15T23:27:54.453Z,67.49
2023-01-15T23:30:20.761Z,69.93
2023-01-15T23:32:47.116Z,68.76
2023-01-15T23:35:20.558Z,69.12
2023-01-15T23:37:47.042Z,69.51
2023-01-15T23:40:13.549Z,69.08
2023-01-15T23:42:40.059Z,69.00
2023-01-15T23:45:07.556Z,69.46
2023-01-15T23:47:33.890Z,69.01
2023-01-15T23:50:02.314Z,67.30
2023-01-15T23:52:28.685Z,69.09
2023-01-15T23:54:55.097Z,70.19
2023-01-15T23:57:21.451Z,69.91
2023-01-15T23:59:47.779Z,69.18
